Time;durP1;ratioP1;P1;durP2;ratioP2;P2;SDS_P1;SDS_P2;PMS_P1;PMS_P2;Temp;Humidity;BMP_temperature;BMP_pressure;BME280_temperature;BME280_humidity;BME280_pressure;Samples;Min_cycle;Max_cycle;Signal;HPM_P1;HPM_P2
2022/12/04 00:00:18;;;;;;;93.95;25.05;;;;;;;;;;5051347;28;20037;-67
2022/12/04 00:02:44;;;;;;;85.10;26.10;;;;;;;;;;5054254;28;20033;-67
2022/12/04 00:05:10;;;;;;;92.90;26.60;;;;;;;;;;5052701;28;20496;-67
2022/12/04 00:07:36;;;;;;;96.40;25.77;;;;;;;;;;5052695;28;20040;-67
2022/12/04 00:10:02;;;;;;;83.95;25.27;;;;;;;;;;5052238;28;20061;-67
2022/12/04 00:12:28;;;;;;;86.65;25.10;;;;;;;;;;5036363;28;20066;-67
2022/12/04 00:14:54;;;;;;;78.35;26.35;;;;;;;;;;5052089;28;20044;-67
2022/12/04 00:17:21;;;;;;;86.45;23.90;;;;;;;;;;5052198;28;20047;-67
2022/12/04 00:19:47;;;;;;;74.43;24.50;;;;;;;;;;5052654;28;20099;-67
2022/12/04 00:22:13;;;;;;;81.80;24.83;;;;;;;;;;5052560;28;20067;-67
2022/12/04 00:24:39;;;;;;;95.97;25.40;;;;;;;;;;5052029;28;20388;-67
2022/12/04 00:27:05;;;;;;;86.75;23.73;;;;;;;;;;5052146;28;20045;-67
2022/12/04 00:29:31;;;;;;;84.82;25.77;;;;;;;;;;5051689;28;20045;-67
2022/12/04 00:31:57;;;;;;;80.68;24.30;;;;;;;;;;5051904;28;20037;-67
2022/12/04 00:34:24;;;;;;;76.63;25.65;;;;;;;;;;5051874;28;20048;-67
2022/12/04 00:36:50;;;;;;;77.45;22.80;;;;;;;;;;5051852;28;20040;-67
2022/12/04 00:39:16;;;;;;;77.28;24.20;;;;;;;;;;5051888;28;20037;-67
2022/12/04 00:41:42;;;;;;;92.20;24.35;;;;;;;;;;5051659;28;20499;-67
2022/12/04 00:44:08;;;;;;;83.90;24.77;;;;;;;;;;5052017;28;20508;-67
2022/12/04 00:46:34;;;;;;;81.18;24.15;;;;;;;;;;5051596;28;20412;-67
2022/12/04 00:49:01;;;;;;;84.63;24.85;;;;;;;;;;5077447;28;20039;-67
2022/12/04 00:51:28;;;;;;;79.65;25.02;;;;;;;;;;5051377;28;20041;-67
2022/12/04 00:53:54;;;;;;;89.25;24.70;;;;;;;;;;5052095;28;20067;-67
2022/12/04 00:56:22;;;;;;;87.00;24.20;;;;;;;;;;5051791;28;20037;-67
2022/12/04 00:58:51;;;;;;;82.80;23.38;;;;;;;;;;5051936;28;20136;-67
2022/12/04 01:01:18;;;;;;;92.88;25.02;;;;;;;;;;5051216;28;20511;-67
2022/12/04 01:03:45;;;;;;;85.40;24.65;;;;;;;;;;5034869;28;20037;-67
2022/12/04 01:06:37;;;;;;;86.50;25.13;;;;;;;;;;5051442;28;20071;-67
2022/12/04 01:09:04;;;;;;;96.82;25.20;;;;;;;;;;5049720;28;20045;-67
2022/12/04 01:11:31;;;;;;;91.57;24.00;;;;;;;;;;5051231;28;20045;-67
2022/12/04 01:13:57;;;;;;;87.80;23.48;;;;;;;;;;5050947;28;20131;-67
2022/12/04 01:16:29;;;;;;;86.43;24.52;;;;;;;;;;5051399;28;20041;-67
2022/12/04 01:18:55;;;;;;;81.43;25.73;;;;;;;;;;5051483;28;20126;-67
2022/12/04 01:21:21;;;;;;;87.05;23.30;;;;;;;;;;5051910;28;20059;-67
2022/12/04 01:23:48;;;;;;;83.88;25.70;;;;;;;;;;5051287;28;20032;-67
2022/12/04 01:26:14;;;;;;;86.00;24.48;;;;;;;;;;5052461;28;20036;-67
2022/12/04 01:28:40;;;;;;;76.47;23.20;;;;;;;;;;5052179;28;20063;-67
2022/12/04 01:31:12;;;;;;;97.55;24.70;;;;;;;;;;5051291;28;20118;-67
2022/12/04 01:33:38;;;;;;;91.10;25.90;;;;;;;;;;5048362;28;20489;-67
2022/12/04 01:36:05;;;;;;;90.22;25.15;;;;;;;;;;5050914;28;20083;-67
2022/12/04 01:38:31;;;;;;;86.57;25.90;;;;;;;;;;5052253;28;20045;-67
2022/12/04 01:40:58;;;;;;;87.07;23.80;;;;;;;;;;5051528;28;20080;-67
2022/12/04 01:43:24;;;;;;;88.88;24.10;;;;;;;;;;5050798;28;20492;-67
2022/12/04 01:45:57;;;;;;;86.10;26.20;;;;;;;;;;5051017;28;20037;-67
2022/12/04 01:48:31;;;;;;;84.68;23.88;;;;;;;;;;5050091;28;20037;-67
2022/12/04 01:51:03;;;;;;;93.22;27.65;;;;;;;;;;5051223;28;20036;-67
2022/12/04 01:53:29;;;;;;;88.43;24.13;;;;;;;;;;5050861;28;20124;-67
2022/12/04 01:55:55;;;;;;;103.38;27.85;;;;;;;;;;5034268;28;20187;-67
2022/12/04 01:58:25;;;;;;;81.13;24.45;;;;;;;;;;5051751;28;20068;-67
2022/12/04 02:00:54;;;;;;;88.15;25.55;;;;;;;;;;5052401;28;20052;-67
2022/12/04 02:03:20;;;;;;;83.22;25.58;;;;;;;;;;5052290;28;20035;-67
2022/12/04 02:05:46;;;;;;;95.75;26.67;;;;;;;;;;5052018;28;20048;-67
2022/12/04 02:08:12;;;;;;;95.63;26.90;;;;;;;;;;5050780;28;20049;-67
2022/12/04 02:10:46;;;;;;;99.05;26.40;;;;;;;;;;5047885;28;20128;-67
2022/12/04 02:13:31;;;;;;;84.20;24.50;;;;;;;;;;5051017;28;20040;-71
2022/12/04 02:16:03;;;;;;;89.50;23.90;;;;;;;;;;5059983;28;20076;-71
2022/12/04 02:18:35;;;;;;;100.28;25.40;;;;;;;;;;5050935;28;20037;-70
2022/12/04 02:21:19;;;;;;;83.43;23.15;;;;;;;;;;5048487;28;20044;-70
2022/12/04 02:23:51;;;;;;;89.10;25.25;;;;;;;;;;5075049;28;20067;-70
2022/12/04 02:26:29;;;;;;;95.15;26.42;;;;;;;;;;5051535;28;20035;-70
2022/12/04 02:29:05;;;;;;;98.53;25.52;;;;;;;;;;5050618;28;20029;-71
2022/12/04 02:31:36;;;;;;;89.57;26.90;;;;;;;;;;5050781;28;20131;-71
2022/12/04 02:34:02;;;;;;;96.72;27.48;;;;;;;;;;5074223;28;20170;-71
2022/12/04 02:36:31;;;;;;;98.53;26.75;;;;;;;;;;5051617;28;20029;-70
2022/12/04 02:39:17;;;;;;;105.15;26.20;;;;;;;;;;5050939;28;20075;-70
2022/12/04 02:41:46;;;;;;;83.05;24.20;;;;;;;;;;5048086;28;20041;-71
2022/12/04 02:44:12;;;;;;;91.65;26.10;;;;;;;;;;5052075;28;20037;-70
2022/12/04 02:46:43;;;;;;;96.40;26.27;;;;;;;;;;5051413;28;20033;-71
2022/12/04 02:49:12;;;;;;;102.32;25.80;;;;;;;;;;5054329;28;20048;-70
2022/12/04 02:51:40;;;;;;;103.57;28.52;;;;;;;;;;5037713;28;20040;-70
2022/12/04 02:54:12;;;;;;;99.55;26.75;;;;;;;;;;5037372;28;20045;-70
2022/12/04 02:56:40;;;;;;;92.80;25.48;;;;;;;;;;5054880;28;20048;-71
2022/12/04 02:59:12;;;;;;;96.50;26.67;;;;;;;;;;5055399;28;20504;-71
2022/12/04 03:01:40;;;;;;;99.80;26.92;;;;;;;;;;5053668;28;20392;-70
2022/12/04 03:04:10;;;;;;;107.50;26.17;;;;;;;;;;5054864;28;20131;-70
2022/12/04 03:06:38;;;;;;;96.47;25.75;;;;;;;;;;5053527;28;20041;-70
2022/12/04 03:09:13;;;;;;;97.82;25.95;;;;;;;;;;5053724;28;20118;-70
2022/12/04 03:11:41;;;;;;;93.40;26.52;;;;;;;;;;5034070;28;20045;-66
2022/12/04 03:14:13;;;;;;;101.80;25.63;;;;;;;;;;5054788;28;20041;-66
2022/12/04 03:16:40;;;;;;;102.38;27.65;;;;;;;;;;5036708;28;20474;-67
2022/12/04 03:19:12;;;;;;;116.32;28.75;;;;;;;;;;5054520;28;20508;-66
2022/12/04 03:21:42;;;;;;;101.55;25.88;;;;;;;;;;5053571;28;20095;-66
2022/12/04 03:24:20;;;;;;;105.68;27.55;;;;;;;;;;5053760;28;20400;-66
2022/12/04 03:26:47;;;;;;;102.25;27.70;;;;;;;;;;5062544;28;20123;-66
2022/12/04 03:29:16;;;;;;;97.88;26.08;;;;;;;;;;5054806;28;20072;-66
2022/12/04 03:31:44;;;;;;;90.57;26.23;;;;;;;;;;5076482;28;20091;-66
2022/12/04 03:34:12;;;;;;;95.18;27.25;;;;;;;;;;5076850;28;20497;-66
2022/12/04 03:36:43;;;;;;;103.15;28.25;;;;;;;;;;5053300;28;20037;-66
2022/12/04 03:39:22;;;;;;;95.10;27.02;;;;;;;;;;5054685;28;20044;-66
2022/12/04 03:42:09;;;;;;;99.57;27.50;;;1.20;99.90;;;;;;5051932;28;20045;-66
2022/12/04 03:44:40;;;;;;;109.65;29.42;;;;;;;;;;5078790;28;20049;-66
2022/12/04 03:47:26;;;;;;;105.47;28.38;;;;;;;;;;5052992;28;20041;-66
2022/12/04 03:49:58;;;;;;;118.50;30.08;;;;;;;;;;5049277;28;20145;-66
2022/12/04 03:52:29;;;;;;;107.10;30.52;;;;;;;;;;5075626;28;20045;-66
2022/12/04 03:55:08;;;;;;;103.00;28.42;;;;;;;;;;5052774;28;20033;-66
2022/12/04 03:57:37;;;;;;;108.75;30.20;;;;;;;;;;5052856;28;20408;-67
2022/12/04 04:00:14;;;;;;;110.00;28.25;;;;;;;;;;5054092;28;20091;-66
2022/12/04 04:02:50;;;;;;;113.05;28.58;;;;;;;;;;5049774;28;20048;-66
2022/12/04 04:05:17;;;;;;;117.53;30.10;;;;;;;;;;5052528;28;20520;-66
2022/12/04 04:07:48;;;;;;;93.45;27.80;;;;;;;;;;5035730;28;20083;-66
2022/12/04 04:10:16;;;;;;;108.32;27.90;;;;;;;;;;5053817;28;20131;-66
2022/12/04 04:24:15;;;;;;;106.97;30.15;;;;;;;;;;5049833;28;20131;-66
2022/12/04 04:26:48;;;;;;;115.75;30.42;;;;;;;;;;5051264;28;20048;-66
2022/12/04 04:29:14;;;;;;;114.35;30.63;;;;;;;;;;5051961;28;20084;-66
2022/12/04 04:31:50;;;;;;;118.68;32.38;;;;;;;;;;5049676;28;20045;-66
2022/12/04 04:34:24;;;;;;;129.15;31.35;;;;;;;;;;5052898;28;20535;-66
2022/12/04 04:36:54;;;;;;;118.55;31.67;;;;;;;;;;5052305;28;20489;-66
2022/12/04 04:39:24;;;;;;;127.38;32.45;;;;;;;;;;5050866;28;20389;-66
2022/12/04 04:41:59;;;;;;;129.10;33.45;;;;;;;;;;5053424;28;20032;-66
2022/12/04 04:44:27;;;;;;;123.47;32.33;;;;;;;;;;5033340;28;20124;-66
2022/12/04 04:46:56;;;;;;;118.65;31.63;;;;;;;;;;5035611;28;20115;-66
2022/12/04 04:49:23;;;;;;;118.53;31.42;;;;;;;;;;5049103;28;20132;-66
2022/12/04 04:51:49;;;;;;;114.97;31.23;;;;;;;;;;5052013;28;20182;-67
2022/12/04 04:54:16;;;;;;;123.43;32.08;;;;;;;;;;5051344;28;20382;-66
2022/12/04 04:56:43;;;;;;;118.07;33.08;;;;;;;;;;5035274;28;20087;-66
2022/12/04 04:59:09;;;;;;;128.55;31.98;;;;;;;;;;5051764;28;20028;-66
2022/12/04 05:01:36;;;;;;;123.18;32.42;;;;;;;;;;5035160;28;20045;-66
2022/12/04 05:04:03;;;;;;;132.90;36.78;;;;;;;;;;5052929;28;20461;-66
2022/12/04 05:06:29;;;;;;;137.50;34.78;;;;;;;;;;5076264;28;20063;-66
2022/12/04 05:08:55;;;;;;;131.70;35.05;;;;;;;;;;5051005;28;20076;-66
2022/12/04 05:11:21;;;;;;;131.85;35.03;;;;;;;;;;5049492;28;20081;-66
2022/12/04 05:13:47;;;;;;;145.02;35.35;;;;;;;;;;5050211;28;20379;-66
2022/12/04 05:16:14;;;;;;;140.82;34.83;;;;;;;;;;5051255;28;20033;-66
2022/12/04 05:19:52;;;;;;;151.02;36.65;;;;;;;;;;5051599;28;20036;-66
2022/12/04 05:21:27;;;;;;;143.43;36.33;;;;;;;;;;5050597;28;20550;-66
2022/12/04 05:23:53;;;;;;;139.93;35.92;;;;;;;;;;5035001;28;20037;-66
2022/12/04 05:26:19;;;;;;;144.38;35.33;;;;;;;;;;5052266;28;20116;-66
2022/12/04 05:28:45;;;;;;;148.15;36.47;;;;;;;;;;5034669;28;20040;-66
2022/12/04 05:31:11;;;;;;;138.23;35.00;;;;;;;;;;5051010;28;20123;-66
2022/12/04 05:33:37;;;;;;;134.10;34.90;;;;;;;;;;5052394;28;20037;-67
2022/12/04 05:36:05;;;;;;;148.65;36.70;;;;;;;;;;5051084;28;20402;-66
2022/12/04 05:38:32;;;;;;;142.82;35.28;;;;;;;;;;5051205;28;20447;-66
2022/12/04 05:40:58;;;;;;;131.35;37.20;;;;;;;;;;5051145;28;20120;-66
2022/12/04 05:43:24;;;;;;;143.98;38.67;;;;;;;;;;5052267;28;20033;-66
2022/12/04 05:45:50;;;;;;;153.40;39.70;;;;;;;;;;5051102;28;20068;-66
2022/12/04 05:48:16;;;;;;;147.90;38.42;;;;;;;;;;5050967;28;20049;-66
2022/12/04 05:50:42;;;;;;;152.30;37.95;;;;;;;;;;5052477;28;20475;-66
2022/12/04 05:53:08;;;;;;;144.13;35.05;;;;;;;;;;5051047;28;20037;-66
2022/12/04 05:55:34;;;;;;;136.05;35.13;;;;;;;;;;5050815;28;20053;-66
2022/12/04 05:58:01;;;;;;;150.70;38.03;;;;;;;;;;5050371;28;20454;-66
2022/12/04 06:00:28;;;;;;;161.00;37.33;;;;;;;;;;5034644;28;20045;-66
2022/12/04 06:02:54;;;;;;;148.82;39.00;;;;;;;;;;5078094;28;20539;-66
2022/12/04 06:05:20;;;;;;;155.27;36.83;;;;;;;;;;5051763;28;20524;-66
2022/12/04 06:07:46;;;;;;;143.93;38.17;;;;;;;;;;5051954;28;20025;-66
2022/12/04 06:10:12;;;;;;;157.07;39.33;;;;;;;;;;5051926;28;20041;-66
2022/12/04 06:12:38;;;;;;;155.20;38.92;;;;;;;;;;5052044;28;20056;-66
2022/12/04 06:15:04;;;;;;;148.73;38.35;;;;;;;;;;5050677;28;20051;-66
2022/12/04 06:17:30;;;;;;;149.95;39.65;;;;;;;;;;5052090;28;20041;-66
2022/12/04 06:19:57;;;;;;;148.35;39.22;;;;;;;;;;5052195;28;20052;-66
2022/12/04 06:22:23;;;;;;;148.75;37.53;;;;;;;;;;5054683;28;20033;-66
2022/12/04 06:24:49;;;;;;;146.18;38.40;;;;;;;;;;5054345;28;20040;-66
2022/12/04 06:27:15;;;;;;;167.98;40.50;;;;;;;;;;5055960;28;20036;-66
2022/12/04 06:29:41;;;;;;;153.88;39.67;;;;;;;;;;5051647;28;20048;-66
2022/12/04 06:32:07;;;;;;;160.27;39.45;;;;;;;;;;5037914;28;20045;-66
2022/12/04 06:34:34;;;;;;;161.20;38.60;;;;;;;;;;5053989;28;20048;-66
2022/12/04 06:37:00;;;;;;;144.23;36.75;;;;;;;;;;5055484;28;20069;-66
2022/12/04 06:39:26;;;;;;;139.52;36.47;;;;;;;;;;5054402;28;20114;-66
2022/12/04 06:41:52;;;;;;;145.43;37.97;;;;;;;;;;5054769;28;20119;-66
2022/12/04 06:44:18;;;;;;;138.85;36.10;;;;;;;;;;5055120;28;20033;-66
2022/12/04 06:46:44;;;;;;;164.73;41.40;;;;;;;;;;5037534;28;20135;-66
2022/12/04 06:49:10;;;;;;;144.38;35.58;;;;;;;;;;5054298;28;20106;-66
2022/12/04 06:51:39;;;;;;;147.18;37.45;;;;;;;;;;5037398;28;20072;-66
2022/12/04 06:54:05;;;;;;;147.30;36.08;;;;;;;;;;5053898;28;20041;-66
2022/12/04 06:56:32;;;;;;;142.05;37.08;;;;;;;;;;5054052;28;20037;-66
2022/12/04 06:58:59;;;;;;;154.63;36.80;;;;;;;;;;5037703;28;20055;-66
2022/12/04 07:01:29;;;;;;;158.23;38.90;;;;;;;;;;5055111;28;20041;-66
2022/12/04 07:03:56;;;;;;;149.50;35.88;;;;;;;;;;5053722;28;20035;-66
2022/12/04 07:06:27;;;;;;;148.48;36.80;;;;;;;;;;5076147;28;20119;-66
2022/12/04 07:08:55;;;;;;;155.88;35.33;;;;;;;;;;5053688;28;20504;-66
2022/12/04 07:11:21;;;;;;;143.15;38.35;;;;;;;;;;5053745;28;20049;-66
2022/12/04 07:13:48;;;;;;;135.98;36.10;;;;;;;;;;5053865;28;20063;-66
2022/12/04 07:16:15;;;;;;;141.25;35.33;;;;;;;;;;5054847;28;20037;-66
2022/12/04 07:18:42;;;;;;;149.88;38.72;;;;;;;;;;5054813;28;20033;-66
2022/12/04 07:21:11;;;;;;;148.50;36.38;;;;;;;;;;5053418;28;20043;-66
2022/12/04 07:23:38;;;;;;;133.20;35.50;;;;;;;;;;5053664;28;20029;-67
2022/12/04 07:26:08;;;;;;;139.27;36.00;;;;;;;;;;5053433;28;20116;-67
2022/12/04 07:28:35;;;;;;;151.88;39.00;;;;;;;;;;5054599;28;20040;-67
2022/12/04 07:31:08;;;;;;;155.48;37.10;;;;;;;;;;5050238;28;20128;-67
2022/12/04 07:33:34;;;;;;;128.02;36.03;;;;;;;;;;5037004;28;20041;-67
2022/12/04 07:36:01;;;;;;;136.88;34.85;;;;;;;;;;5052972;28;20489;-66
2022/12/04 07:38:28;;;;;;;148.25;35.38;;;;;;;;;;5054639;28;20037;-67
2022/12/04 07:40:58;;;;;;;132.82;35.28;;;;;;;;;;5053221;28;20037;-69
2022/12/04 07:43:25;;;;;;;131.25;35.80;;;;;;;;;;5075875;28;20044;-67
2022/12/04 07:45:51;;;;;;;149.52;38.33;;;;;;;;;;5054007;28;20041;-66
2022/12/04 07:48:17;;;;;;;155.45;37.60;;;;;;;;;;5052757;28;20045;-67
2022/12/04 07:50:43;;;;;;;146.30;38.08;;;;;;;;;;5053510;28;20041;-67
2022/12/04 07:53:09;;;;;;;135.90;34.45;;;;;;;;;;5052855;28;20485;-67
2022/12/04 07:55:35;;;;;;;136.25;34.78;;;;;;;;;;5052669;28;20099;-67
2022/12/04 07:58:02;;;;;;;135.40;35.08;;;;;;;;;;5050357;28;20136;-67
2022/12/04 08:00:28;;;;;;;158.27;39.45;;;;;;;;;;5052806;28;20128;-67
2022/12/04 08:02:54;;;;;;;145.15;36.88;;;;;;;;;;5052917;28;20083;-67
2022/12/04 08:05:20;;;;;;;138.00;36.22;;;;;;;;;;5052503;28;20508;-67
2022/12/04 08:07:47;;;;;;;136.77;35.05;;;;;;;;;;5053755;28;20079;-67
2022/12/04 08:10:13;;;;;;;132.27;36.25;;;;;;;;;;5052813;28;20037;-67
2022/12/04 08:12:39;;;;;;;158.73;37.42;;;;;;;;;;5052524;28;20444;-67
2022/12/04 08:15:05;;;;;;;145.13;38.78;;;;;;;;;;5035695;28;20524;-66
2022/12/04 08:17:31;;;;;;;148.32;36.65;;;;;;;;;;5053486;28;20481;-67
2022/12/04 08:19:58;;;;;;;142.50;36.90;;;;;;;;;;5052762;28;20123;-67
2022/12/04 08:22:24;;;;;;;148.05;37.90;;;;;;;;;;5051618;28;20037;-67
2022/12/04 08:24:50;;;;;;;133.68;35.83;;;;;;;;;;5051249;28;20041;-67
2022/12/04 08:27:16;;;;;;;148.32;36.85;;;;;;;;;;5051724;28;20041;-67
2022/12/04 08:29:42;;;;;;;143.77;36.15;;;;;;;;;;5033244;28;20041;-67
2022/12/04 08:32:08;;;;;;;143.20;35.40;;;;;;;;;;5035664;28;20044;-67
2022/12/04 08:34:34;;;;;;;157.52;37.40;;;;;;;;;;5051151;28;20131;-67
2022/12/04 08:37:00;;;;;;;147.13;38.92;;;;;;;;;;5034816;28;20037;-67
2022/12/04 08:39:26;;;;;;;144.25;37.78;;;;;;;;;;5051096;28;20048;-67
2022/12/04 08:41:53;;;;;;;147.75;37.45;;;;;;;;;;5074200;28;20123;-68
2022/12/04 08:44:19;;;;;;;142.73;37.70;;;;;;;;;;5050975;28;20102;-67
2022/12/04 08:46:45;;;;;;;138.77;37.28;;;;;;;;;;5050951;28;20134;-67
2022/12/04 08:49:11;;;;;;;136.85;33.42;;;;;;;;;;5033979;28;20041;-66
2022/12/04 08:51:39;;;;;;;127.03;34.13;;;;;;;;;;5050619;28;20604;-67
2022/12/04 08:54:08;;;;;;;147.95;38.50;;;;;;;;;;5052811;28;20443;-67
2022/12/04 08:56:36;;;;;;;143.95;36.50;;;;;;;;;;5051984;28;20047;-66
2022/12/04 08:59:02;;;;;;;149.43;35.30;;;;;;;;;;5050041;28;20055;-67
2022/12/04 09:01:29;;;;;;;151.18;38.78;;;;;;;;;;5053222;28;20033;-67
2022/12/04 09:03:55;;;;;;;147.00;35.72;;;;;;;;;;5051820;28;20033;-67
2022/12/04 09:06:21;;;;;;;140.32;36.63;;;;;;;;;;5051353;28;20037;-67
2022/12/04 09:08:48;;;;;;;137.07;38.13;;;;;;;;;;5034971;28;20385;-66
2022/12/04 09:11:17;;;;;;;132.90;35.67;;;;;;;;;;5052456;28;20103;-67
2022/12/04 09:13:44;;;;;;;131.00;35.40;;;;;;;;;;5050105;28;20343;-67
2022/12/04 09:16:15;;;;;;;129.02;36.15;;;;;;;;;;5051228;28;20063;-66
2022/12/04 09:18:41;;;;;;;139.52;40.63;;;;;;;;;;5050287;28;20036;-67
2022/12/04 09:21:09;;;;;;;131.25;36.03;;;;;;;;;;5050351;28;20041;-66
2022/12/04 09:23:36;;;;;;;142.20;36.75;;;;;;;;;;5049526;28;20179;-66
2022/12/04 09:26:02;;;;;;;132.75;35.50;;;;;;;;;;5050052;28;20062;-66
2022/12/04 09:28:28;;;;;;;132.90;35.35;;;;;;;;;;5051716;28;20520;-67
2022/12/04 09:30:58;;;;;;;129.38;34.67;;;;;;;;;;5050511;28;20036;-66
2022/12/04 09:33:24;;;;;;;128.95;34.95;;;;;;;;;;5049725;28;20481;-66
2022/12/04 09:35:51;;;;;;;121.47;34.83;;;;;;;;;;5050926;28;20041;-66
2022/12/04 09:38:17;;;;;;;141.13;36.17;;;;;;;;;;5050048;28;20036;-66
2022/12/04 09:40:56;;;;;;;141.13;37.30;;;;;;;;;;5049958;28;20508;-66
2022/12/04 09:43:29;;;;;;;117.93;33.45;;;;;;;;;;5051403;28;20044;-66
2022/12/04 09:45:58;;;;;;;131.25;35.17;;;;;;;;;;5049902;28;20045;-66
2022/12/04 09:48:30;;;;;;;132.05;35.65;;;;;;;;;;5048314;28;20190;-66
2022/12/04 09:50:56;;;;;;;135.32;35.60;;;;;;;;;;5050922;28;20072;-66
2022/12/04 09:53:26;;;;;;;138.73;34.05;;;;;;;;;;5050928;28;20467;-66
2022/12/04 09:55:59;;;;;;;125.10;35.05;;;;;;;;;;5054323;28;20468;-67
2022/12/04 09:58:28;;;;;;;129.40;35.65;;;;;;;;;;5055705;28;20045;-66
2022/12/04 10:00:55;;;;;;;125.00;34.00;;;;;;;;;;5037398;28;20040;-66
2022/12/04 10:03:23;;;;;;;124.55;34.22;;;;;;;;;;5052218;28;20033;-66
2022/12/04 10:05:49;;;;;;;124.30;33.10;;;;;;;;;;5052210;28;20049;-66
2022/12/04 10:08:19;;;;;;;131.68;34.33;;;;;;;;;;5038219;28;20064;-66
2022/12/04 10:10:54;;;;;;;112.03;34.60;;;;;;;;;;5054866;28;20076;-66
2022/12/04 10:13:40;;;;;;;121.38;34.70;;;;;;;;;;5053945;28;20045;-66
2022/12/04 10:16:06;;;;;;;117.18;33.15;;;;;;;;;;5021801;28;20088;-66
2022/12/04 10:18:32;;;;;;;131.27;34.80;;;;;;;;;;5053514;28;20513;-66
2022/12/04 10:21:15;;;;;;;121.28;33.80;;;;;;;;;;5053544;28;20044;-66
2022/12/04 10:23:41;;;;;;;104.82;31.70;;;;;;;;;;5053742;28;20040;-70
2022/12/04 10:26:12;;;;;;;114.05;30.83;;;;;;;;;;5037085;28;20516;-70
2022/12/04 10:28:40;;;;;;;108.65;31.92;;;;;;;;;;5053592;28;20408;-69
2022/12/04 10:31:10;;;;;;;119.47;32.22;;;;;;;;;;5055080;28;20036;-70
2022/12/04 10:33:38;;;;;;;110.18;31.58;;;;;;;;;;5052024;28;20082;-69
2022/12/04 10:36:04;;;;;;;117.55;33.53;;;;;;;;;;5054648;28;20115;-71
2022/12/04 10:38:36;;;;;;;102.30;30.13;;;;;;;;;;5053258;28;20033;-70
2022/12/04 10:41:05;;;;;;;106.72;31.20;;;;;;;;;;5077072;28;20041;-71
2022/12/04 10:43:44;;;;;;;115.45;34.08;;;;;;;;;;5053496;28;20367;-70
2022/12/04 10:46:31;;;;;;;103.53;29.77;;;;;;;;;;5053350;28;20473;-70
2022/12/04 10:49:02;;;;;;;100.28;29.48;;;;;;;;;;5056368;28;20087;-70
2022/12/04 10:51:31;;;;;;;100.97;31.02;;;;;;;;;;5051481;28;20047;-70
2022/12/04 10:53:57;;;;;;;88.40;28.50;;;;;;;;;;5036487;28;20068;-70
2022/12/04 10:56:25;;;;;;;87.72;26.90;;;;;;;;;;5054162;28;20123;-70
2022/12/04 10:59:17;;;;;;;103.85;30.83;;;;;;;;;;5051750;28;20503;-70
2022/12/04 11:01:43;;;;;;;93.03;28.60;;;;;;;;;;5062922;28;20036;-70
2022/12/04 11:04:18;;;;;;;79.75;26.70;;;;;;;;;;5052800;28;20044;-71
2022/12/04 11:06:44;;;;;;;82.15;25.73;;;;;;;;;;5053890;28;20033;-71
2022/12/04 11:09:18;;;;;;;81.10;26.73;;;;;;;;;;5053279;28;20033;-70
2022/12/04 11:11:44;;;;;;;88.60;27.77;;;;;;;;;;5050913;28;20401;-71
2022/12/04 11:14:15;;;;;;;91.07;26.60;;;;;;;;;;5054360;28;20489;-71
2022/12/04 11:16:47;;;;;;;77.53;25.48;;;;;;;;;;5053099;28;20047;-71
2022/12/04 11:19:19;;;;;;;78.50;25.83;;;;;;;;;;5071251;28;20044;-70
2022/12/04 11:21:45;;;;;;;80.28;25.63;;;;;;;;;;5053803;28;20049;-71
2022/12/04 11:24:32;;;;;;;82.68;25.58;;;;;;;;;;5053675;28;20040;-71
2022/12/04 11:26:58;;;;;;;72.68;24.08;;;;;;;;;;5051384;28;20047;-70
2022/12/04 11:29:28;;;;;;;79.55;24.42;;;;;;;;;;5052218;28;20025;-70
2022/12/04 11:31:56;;;;;;;66.60;23.02;;;;;;;;;;5052022;28;20074;-70
2022/12/04 11:34:24;;;;;;;70.40;23.23;;;;;;;;;;5052579;28;20044;-70
2022/12/04 11:36:51;;;;;;;69.45;23.63;;;;;;;;;;5052283;28;20050;-71
2022/12/04 11:39:17;;;;;;;68.55;23.50;;;;;;;;;;5053354;28;20367;-71
2022/12/04 11:41:44;;;;;;;64.57;21.67;;;;;;;;;;5035250;28;20045;-71
2022/12/04 11:44:36;;;;;;;61.40;21.00;;;;;;;;;;5052451;28;20037;-70
2022/12/04 11:47:04;;;;;;;60.13;22.80;;;;;;;;;;5048414;28;20090;-70
2022/12/04 11:49:31;;;;;;;56.60;19.88;;;;;;;;;;5053557;28;20037;-70
2022/12/04 11:52:00;;;;;;;58.83;20.73;;;;;;;;;;5035630;28;20039;-70
2022/12/04 11:54:38;;;;;;;55.67;19.02;;;;;;;;;;5050865;28;20069;-70
2022/12/04 11:57:23;;;;;;;55.35;18.95;;;;;;;;;;5051593;28;20136;-70
2022/12/04 11:59:49;;;;;;;53.90;18.52;;;;;;;;;;5051085;28;20116;-70
2022/12/04 12:02:15;;;;;;;46.22;16.75;;;;;;;;;;5051912;28;20040;-70
2022/12/04 12:04:41;;;;;;;46.28;16.23;;;;;;;;;;5052103;28;20045;-70
2022/12/04 12:07:13;;;;;;;45.13;15.80;;;;;;;;;;5051846;28;20037;-70
2022/12/04 12:09:48;;;;;;;42.03;15.68;;;;;;;;;;5051823;28;20393;-71
2022/12/04 12:12:18;;;;;;;44.65;16.83;;;;;;;;;;5051220;28;20091;-71
2022/12/04 12:14:50;;;;;;;51.38;17.15;;;;;;;;;;5052866;28;20638;-70
2022/12/04 12:17:22;;;;;;;40.50;15.38;;;;;;;;;;5050538;28;20033;-70
2022/12/04 12:19:51;;;;;;;44.22;17.00;;;;;;;;;;5050372;28;20045;-70
2022/12/04 12:22:17;;;;;;;47.97;16.80;;;;;;;;;;5051372;28;20072;-71
2022/12/04 12:24:52;;;;;;;47.47;15.93;;;;;;;;;;5051068;28;20036;-71
2022/12/04 12:27:25;;;;;;;50.35;16.98;;;;;;;;;;5034816;28;20051;-75
2022/12/04 12:29:57;;;;;;;46.40;17.58;;;;;;;;;;5050277;28;20095;-71
2022/12/04 12:32:38;;;;;;;52.47;17.80;;;;;;;;;;5053573;28;20381;-71
2022/12/04 12:35:12;;;;;;;47.47;17.73;;;;;;;;;;5053685;28;20124;-71
2022/12/04 12:37:52;;;;;;;46.42;18.90;;;;;;;;;;5053701;28;20076;-71
2022/12/04 12:40:28;;;;;;;48.45;18.52;;;;;;;;;;5051316;28;20045;-71
2022/12/04 12:43:06;;;;;;;51.83;18.40;;;;;;;;;;5052688;28;20114;-71
2022/12/04 12:45:42;;;;;;;53.00;19.17;;;;;;;;;;5052429;28;20052;-71
2022/12/04 12:48:21;;;;;;;40.78;16.55;;;;;;;;;;5035993;28;20098;-72
2022/12/04 12:50:53;;;;;;;44.15;16.85;;;;;;;;;;5053918;28;20174;-71
2022/12/04 12:53:22;;;;;;;55.00;18.50;;;;;;;;;;5052439;28;20075;-71
2022/12/04 12:55:56;;;;;;;49.28;18.80;;;;;;;;;;5052384;28;20501;-71
2022/12/04 12:58:33;;;;;;;47.65;19.42;;;;;;;;;;5052614;28;20124;-72
2022/12/04 13:01:05;;;;;;;47.42;18.30;;;;;;;;;;5052274;28;20041;-72
2022/12/04 13:03:50;;;;;;;51.25;18.35;;;;;;;;;;5053834;28;20048;-70
2022/12/04 13:06:23;;;;;;;50.58;18.55;;;;;;;;;;5052028;28;20048;-70
2022/12/04 13:09:06;;;;;;;;;;;3.00;99.90;;;;;;5054028;28;20385;-71
2022/12/04 13:11:33;;;;;;;44.03;16.05;;;;;;;;;;5085521;28;20456;-70
2022/12/04 13:14:02;;;;;;;50.83;18.77;;;;;;;;;;5035363;28;20564;-70
2022/12/04 13:16:28;;;;;;;53.65;18.73;;;;;;;;;;5052107;28;20098;-70
2022/12/04 13:18:57;;;;;;;60.92;20.13;;;;;;;;;;5052027;28;20047;-70
2022/12/04 13:21:38;;;;;;;49.05;18.65;;;;;;;;;;5051507;28;20071;-75
2022/12/04 13:24:23;;;;;;;59.08;20.65;;;;;;;;;;5051379;28;20080;-72
2022/12/04 13:26:57;;;;;;;51.95;18.92;;;;;;;;;;5051751;28;20323;-70
2022/12/04 13:29:41;;;;;;;59.08;19.48;;;;;;;;;;5051957;28;20114;-70
2022/12/04 13:32:22;;;;;;;55.63;19.88;;;;;;;;;;5035757;28;20469;-74
2022/12/04 13:35:12;;;;;;;53.88;20.45;;;;;;;;;;5052176;28;20041;-71
2022/12/04 13:37:44;;;;;;;56.08;19.08;;;;;;;;;;5030540;28;20047;-71
2022/12/04 13:40:29;;;;;;;59.67;20.90;;;;;;;;;;5051068;28;20394;-70
2022/12/04 13:43:14;;;;;;;63.63;22.13;;;;;;;;;;5055217;28;20476;-70
2022/12/04 13:45:40;;;;;;;71.40;22.80;;;;;;;;;;5055532;28;20105;-71
2022/12/04 13:48:08;;;;;;;69.63;21.25;;;;;;;;;;5040840;28;20435;-70
2022/12/04 13:50:35;;;;;;;62.83;21.85;;;;;;;;;;5061516;28;20055;-70
2022/12/04 13:53:01;;;;;;;62.33;22.10;;;;;;;;;;5056437;28;20048;-71
2022/12/04 13:55:30;;;;;;;59.42;21.13;;;;;;;;;;5054789;28;20078;-71
2022/12/04 13:58:01;;;;;;;66.50;23.60;;;;;;;;;;5055901;28;20033;-71
2022/12/04 14:00:27;;;;;;;61.47;22.52;;;;;;;;;;5053606;28;20037;-70
2022/12/04 14:02:54;;;;;;;55.40;19.67;;;;;;;;;;5052749;28;20056;-70
2022/12/04 14:05:28;;;;;;;57.28;19.80;;;;;;;;;;5052580;28;20041;-71
2022/12/04 14:08:20;;;;;;;61.75;19.83;;;;;;;;;;5053484;28;20032;-70
2022/12/04 14:10:56;;;;;;;52.20;18.65;;;;;;;;;;5032132;28;20053;-71
2022/12/04 14:13:24;;;;;;;59.80;19.52;;;;;;;;;;5042779;28;20477;-71
2022/12/04 14:16:02;;;;;;;56.83;19.08;;;;;;;;;;5052277;28;20045;-71
2022/12/04 14:18:29;;;;;;;57.47;20.02;;;;;;;;;;5051849;28;20040;-71
2022/12/04 14:20:59;;;;;;;56.42;20.60;;;;;;;;;;5053011;28;20354;-70
2022/12/04 14:23:32;;;;;;;56.40;20.77;;;;;;;;;;5023313;28;20037;-70
2022/12/04 14:25:59;;;;;;;53.47;19.02;;;;;;;;;;5050576;28;20394;-71
2022/12/04 14:28:28;;;;;;;60.90;20.88;;;;;;;;;;5050613;28;20397;-70
2022/12/04 14:31:03;;;;;;;50.67;19.38;;;;;;;;;;5050289;28;20029;-71
2022/12/04 14:33:31;;;;;;;57.85;18.35;;;;;;;;;;5050718;28;20055;-71
2022/12/04 14:36:06;;;;;;;56.25;18.45;;;;;;;;;;5052014;28;20398;-71